sensor_id;sensor_type;location;lat;lon;timestamp;temperature;humidity
60723;DHT22;46574;52.818;6.516;2022-11-14T00:00:13;7.10;99.90
60723;DHT22;46574;52.818;6.516;2022-11-14T00:02:39;7.10;99.90
60723;DHT22;46574;52.818;6.516;2022-11-14T00:05:05;7.10;99.90
60723;DHT22;46574;52.818;6.516;2022-11-14T00:07:33;7.10;99.90
60723;DHT22;46574;52.818;6.516;2022-11-14T00:09:59;7.10;99.90
60723;DHT22;46574;52.818;6.516;2022-11-14T00:12:25;7.20;99.90
60723;DHT22;46574;52.818;6.516;2022-11-14T00:14:51;7.20;99.90
60723;DHT22;46574;52.818;6.516;2022-11-14T00:17:17;7.20;99.90
60723;DHT22;46574;52.818;6.516;2022-11-14T00:19:43;7.20;99.90
60723;DHT22;46574;52.818;6.516;2022-11-14T00:22:09;7.20;99.90
60723;DHT22;46574;52.818;6.516;2022-11-14T00:24:34;7.20;99.90
60723;DHT22;46574;52.818;6.516;2022-11-14T00:27:00;7.20;99.90
60723;DHT22;46574;52.818;6.516;2022-11-14T00:29:26;7.20;99.90
60723;DHT22;46574;52.818;6.516;2022-11-14T00:31:51;7.20;99.90
60723;DHT22;46574;52.818;6.516;2022-11-14T00:34:17;7.30;99.90
60723;DHT22;46574;52.818;6.516;2022-11-14T00:36:43;7.30;99.90
60723;DHT22;46574;52.818;6.516;2022-11-14T00:39:11;7.30;99.90
60723;DHT22;46574;52.818;6.516;2022-11-14T00:41:37;7.30;99.90
60723;DHT22;46574;52.818;6.516;2022-11-14T00:44:03;7.30;99.90
60723;DHT22;46574;52.818;6.516;2022-11-14T00:46:29;7.30;99.90
60723;DHT22;46574;52.818;6.516;2022-11-14T00:48:54;7.30;99.90
60723;DHT22;46574;52.818;6.516;2022-11-14T00:51:20;7.30;99.90
60723;DHT22;46574;52.818;6.516;2022-11-14T00:53:45;7.30;99.90
60723;DHT22;46574;52.818;6.516;2022-11-14T00:56:11;7.30;99.90
60723;DHT22;46574;52.818;6.516;2022-11-14T00:58:37;7.30;99.90
60723;DHT22;46574;52.818;6.516;2022-11-14T01:01:02;7.20;99.90
60723;DHT22;46574;52.818;6.516;2022-11-14T01:03:28;7.30;99.90
60723;DHT22;46574;52.818;6.516;2022-11-14T01:05:54;7.20;99.90
60723;DHT22;46574;52.818;6.516;2022-11-14T01:08:20;7.30;99.90
60723;DHT22;46574;52.818;6.516;2022-11-14T01:10:47;7.30;99.90
60723;DHT22;46574;52.818;6.516;2022-11-14T01:13:14;7.20;99.90
60723;DHT22;46574;52.818;6.516;2022-11-14T01:15:42;7.20;99.90
60723;DHT22;46574;52.818;6.516;2022-11-14T01:18:14;7.20;99.90
60723;DHT22;46574;52.818;6.516;2022-11-14T01:20:44;7.30;99.90
60723;DHT22;46574;52.818;6.516;2022-11-14T01:23:12;7.30;99.90
60723;DHT22;46574;52.818;6.516;2022-11-14T01:25:39;7.30;99.90
60723;DHT22;46574;52.818;6.516;2022-11-14T01:28:06;7.30;99.90
60723;DHT22;46574;52.818;6.516;2022-11-14T01:30:32;7.30;99.90
60723;DHT22;46574;52.818;6.516;2022-11-14T01:32:58;7.30;99.90
60723;DHT22;46574;52.818;6.516;2022-11-14T01:35:24;7.20;99.90
60723;DHT22;46574;52.818;6.516;2022-11-14T01:37:49;7.20;99.90
60723;DHT22;46574;52.818;6.516;2022-11-14T01:40:15;7.20;99.90
60723;DHT22;46574;52.818;6.516;2022-11-14T01:42:41;7.20;99.90
60723;DHT22;46574;52.818;6.516;2022-11-14T01:49:00;7.20;99.90
60723;DHT22;46574;52.818;6.516;2022-11-14T01:51:22;7.10;99.90
60723;DHT22;46574;52.818;6.516;2022-11-14T01:53:53;7.00;99.90
60723;DHT22;46574;52.818;6.516;2022-11-14T01:56:26;7.00;99.90
60723;DHT22;46574;52.818;6.516;2022-11-14T01:59:17;6.90;99.90
60723;DHT22;46574;52.818;6.516;2022-11-14T02:01:47;6.90;99.90
60723;DHT22;46574;52.818;6.516;2022-11-14T02:04:20;6.80;99.90
60723;DHT22;46574;52.818;6.516;2022-11-14T02:06:47;6.80;99.90
60723;DHT22;46574;52.818;6.516;2022-11-14T02:09:13;6.80;99.90
60723;DHT22;46574;52.818;6.516;2022-11-14T02:11:42;6.70;99.90
60723;DHT22;46574;52.818;6.516;2022-11-14T02:14:09;6.80;99.90
60723;DHT22;46574;52.818;6.516;2022-11-14T02:16:37;6.70;99.90
60723;DHT22;46574;52.818;6.516;2022-11-14T02:19:04;6.70;99.90
60723;DHT22;46574;52.818;6.516;2022-11-14T02:21:30;6.80;99.90
60723;DHT22;46574;52.818;6.516;2022-11-14T02:23:55;6.80;99.90
60723;DHT22;46574;52.818;6.516;2022-11-14T02:26:22;6.80;99.90
60723;DHT22;46574;52.818;6.516;2022-11-14T02:28:48;6.80;99.90
60723;DHT22;46574;52.818;6.516;2022-11-14T02:31:14;6.80;99.90
60723;DHT22;46574;52.818;6.516;2022-11-14T02:33:40;6.80;99.90
60723;DHT22;46574;52.818;6.516;2022-11-14T02:36:06;6.80;99.90
60723;DHT22;46574;52.818;6.516;2022-11-14T02:38:32;6.80;99.90
60723;DHT22;46574;52.818;6.516;2022-11-14T02:40:59;6.80;99.90
60723;DHT22;46574;52.818;6.516;2022-11-14T02:43:25;6.80;99.90
60723;DHT22;46574;52.818;6.516;2022-11-14T02:45:51;6.80;99.90
60723;DHT22;46574;52.818;6.516;2022-11-14T02:48:16;6.90;99.90
60723;DHT22;46574;52.818;6.516;2022-11-14T02:50:42;6.90;99.90
60723;DHT22;46574;52.818;6.516;2022-11-14T02:53:08;6.80;99.90
60723;DHT22;46574;52.818;6.516;2022-11-14T02:55:33;6.80;99.90
60723;DHT22;46574;52.818;6.516;2022-11-14T02:57:59;6.90;99.90
60723;DHT22;46574;52.818;6.516;2022-11-14T03:00:24;6.90;99.90
60723;DHT22;46574;52.818;6.516;2022-11-14T03:02:52;6.90;99.90
60723;DHT22;46574;52.818;6.516;2022-11-14T03:05:18;6.90;99.90
60723;DHT22;46574;52.818;6.516;2022-11-14T03:07:43;6.90;99.90
60723;DHT22;46574;52.818;6.516;2022-11-14T03:10:09;6.90;99.90
60723;DHT22;46574;52.818;6.516;2022-11-14T03:12:36;6.90;99.90
60723;DHT22;46574;52.818;6.516;2022-11-14T03:15:03;6.90;99.90
60723;DHT22;46574;52.818;6.516;2022-11-14T03:17:31;6.90;99.90
60723;DHT22;46574;52.818;6.516;2022-11-14T03:19:57;6.90;99.90
60723;DHT22;46574;52.818;6.516;2022-11-14T03:22:23;6.90;99.90
60723;DHT22;46574;52.818;6.516;2022-11-14T03:24:49;6.90;99.90
60723;DHT22;46574;52.818;6.516;2022-11-14T03:27:14;6.90;99.90
60723;DHT22;46574;52.818;6.516;2022-11-14T03:29:40;6.90;99.90
60723;DHT22;46574;52.818;6.516;2022-11-14T03:32:05;6.90;99.90
60723;DHT22;46574;52.818;6.516;2022-11-14T03:34:31;6.90;99.90
60723;DHT22;46574;52.818;6.516;2022-11-14T03:36:57;6.90;99.90
60723;DHT22;46574;52.818;6.516;2022-11-14T03:39:22;6.80;99.90
60723;DHT22;46574;52.818;6.516;2022-11-14T03:41:48;6.80;99.90
60723;DHT22;46574;52.818;6.516;2022-11-14T03:44:13;6.80;99.90
60723;DHT22;46574;52.818;6.516;2022-11-14T03:46:39;6.80;99.90
60723;DHT22;46574;52.818;6.516;2022-11-14T03:49:05;6.90;99.90
60723;DHT22;46574;52.818;6.516;2022-11-14T03:51:30;6.80;99.90
60723;DHT22;46574;52.818;6.516;2022-11-14T03:53:56;6.90;99.90
60723;DHT22;46574;52.818;6.516;2022-11-14T03:56:22;6.90;99.90
60723;DHT22;46574;52.818;6.516;2022-11-14T03:58:47;6.80;99.90
60723;DHT22;46574;52.818;6.516;2022-11-14T04:01:13;6.80;99.90
60723;DHT22;46574;52.818;6.516;2022-11-14T04:03:39;6.80;99.90
60723;DHT22;46574;52.818;6.516;2022-11-14T04:06:05;6.80;99.90
60723;DHT22;46574;52.818;6.516;2022-11-14T04:08:30;6.80;99.90
60723;DHT22;46574;52.818;6.516;2022-11-14T04:10:56;6.80;99.90
60723;DHT22;46574;52.818;6.516;2022-11-14T04:13:22;6.80;99.90
60723;DHT22;46574;52.818;6.516;2022-11-14T04:15:54;6.80;99.90
60723;DHT22;46574;52.818;6.516;2022-11-14T04:18:20;6.80;99.90
60723;DHT22;46574;52.818;6.516;2022-11-14T04:20:46;6.80;99.90
60723;DHT22;46574;52.818;6.516;2022-11-14T04:23:11;6.80;99.90
60723;DHT22;46574;52.818;6.516;2022-11-14T04:25:37;6.80;99.90
60723;DHT22;46574;52.818;6.516;2022-11-14T04:28:03;6.80;99.90
60723;DHT22;46574;52.818;6.516;2022-11-14T04:30:28;6.80;99.90
60723;DHT22;46574;52.818;6.516;2022-11-14T04:32:54;6.80;99.90
60723;DHT22;46574;52.818;6.516;2022-11-14T04:35:20;6.80;99.90
60723;DHT22;46574;52.818;6.516;2022-11-14T04:37:45;6.80;99.90
60723;DHT22;46574;52.818;6.516;2022-11-14T04:40:11;6.80;99.90
60723;DHT22;46574;52.818;6.516;2022-11-14T04:42:37;6.80;99.90
60723;DHT22;46574;52.818;6.516;2022-11-14T04:45:02;6.80;99.90
60723;DHT22;46574;52.818;6.516;2022-11-14T04:47:28;6.80;99.90
60723;DHT22;46574;52.818;6.516;2022-11-14T04:49:54;6.80;99.90
60723;DHT22;46574;52.818;6.516;2022-11-14T04:52:19;6.80;99.90
60723;DHT22;46574;52.818;6.516;2022-11-14T04:54:45;6.80;99.90
60723;DHT22;46574;52.818;6.516;2022-11-14T04:57:10;6.80;99.90
60723;DHT22;46574;52.818;6.516;2022-11-14T04:59:36;6.80;99.90
60723;DHT22;46574;52.818;6.516;2022-11-14T05:02:02;6.80;99.90
60723;DHT22;46574;52.818;6.516;2022-11-14T05:04:27;6.90;99.90
60723;DHT22;46574;52.818;6.516;2022-11-14T05:06:53;6.90;99.90
60723;DHT22;46574;52.818;6.516;2022-11-14T05:09:19;6.80;99.90
60723;DHT22;46574;52.818;6.516;2022-11-14T05:11:44;6.80;99.90
60723;DHT22;46574;52.818;6.516;2022-11-14T05:14:10;6.80;99.90
60723;DHT22;46574;52.818;6.516;2022-11-14T05:16:35;6.90;99.90
60723;DHT22;46574;52.818;6.516;2022-11-14T05:19:01;6.90;99.90
60723;DHT22;46574;52.818;6.516;2022-11-14T05:21:26;6.90;99.90
60723;DHT22;46574;52.818;6.516;2022-11-14T05:23:52;6.90;99.90
60723;DHT22;46574;52.818;6.516;2022-11-14T05:26:18;6.80;99.90
60723;DHT22;46574;52.818;6.516;2022-11-14T05:28:44;6.90;99.90
60723;DHT22;46574;52.818;6.516;2022-11-14T05:31:12;6.90;99.90
60723;DHT22;46574;52.818;6.516;2022-11-14T05:33:39;6.90;99.90
60723;DHT22;46574;52.818;6.516;2022-11-14T05:36:07;6.80;99.90
60723;DHT22;46574;52.818;6.516;2022-11-14T05:38:33;6.80;99.90
60723;DHT22;46574;52.818;6.516;2022-11-14T05:40:59;6.80;99.90
60723;DHT22;46574;52.818;6.516;2022-11-14T05:43:28;6.80;99.90
60723;DHT22;46574;52.818;6.516;2022-11-14T05:45:58;6.80;99.90
60723;DHT22;46574;52.818;6.516;2022-11-14T05:48:24;6.80;99.90
60723;DHT22;46574;52.818;6.516;2022-11-14T05:50:53;6.80;99.90
60723;DHT22;46574;52.818;6.516;2022-11-14T05:53:19;6.80;99.90
60723;DHT22;46574;52.818;6.516;2022-11-14T05:55:45;6.80;99.90
60723;DHT22;46574;52.818;6.516;2022-11-14T05:58:10;6.80;99.90
60723;DHT22;46574;52.818;6.516;2022-11-14T06:00:36;6.90;99.90
60723;DHT22;46574;52.818;6.516;2022-11-14T06:03:01;6.90;99.90
60723;DHT22;46574;52.818;6.516;2022-11-14T06:05:27;6.90;99.90
60723;DHT22;46574;52.818;6.516;2022-11-14T06:07:57;6.90;99.90
60723;DHT22;46574;52.818;6.516;2022-11-14T06:10:24;6.90;99.90
60723;DHT22;46574;52.818;6.516;2022-11-14T06:12:49;6.80;99.90
60723;DHT22;46574;52.818;6.516;2022-11-14T06:15:15;6.80;99.90
60723;DHT22;46574;52.818;6.516;2022-11-14T06:17:41;6.80;99.90
60723;DHT22;46574;52.818;6.516;2022-11-14T06:20:07;6.80;99.90
60723;DHT22;46574;52.818;6.516;2022-11-14T06:22:33;6.80;99.90
60723;DHT22;46574;52.818;6.516;2022-11-14T06:25:00;6.80;99.90
60723;DHT22;46574;52.818;6.516;2022-11-14T06:27:27;6.80;99.90
60723;DHT22;46574;52.818;6.516;2022-11-14T06:29:53;6.80;99.90
60723;DHT22;46574;52.818;6.516;2022-11-14T06:32:19;6.70;99.90
60723;DHT22;46574;52.818;6.516;2022-11-14T06:34:44;6.70;99.90
60723;DHT22;46574;52.818;6.516;2022-11-14T06:37:10;6.70;99.90
60723;DHT22;46574;52.818;6.516;2022-11-14T06:39:35;6.70;99.90
60723;DHT22;46574;52.818;6.516;2022-11-14T06:42:01;6.70;99.90
60723;DHT22;46574;52.818;6.516;2022-11-14T06:44:26;6.70;99.90
60723;DHT22;46574;52.818;6.516;2022-11-14T06:46:52;6.70;99.90
60723;DHT22;46574;52.818;6.516;2022-11-14T06:49:18;6.70;99.90
60723;DHT22;46574;52.818;6.516;2022-11-14T06:51:43;6.70;99.90
60723;DHT22;46574;52.818;6.516;2022-11-14T06:54:12;6.70;99.90
60723;DHT22;46574;52.818;6.516;2022-11-14T06:56:38;6.60;99.90
60723;DHT22;46574;52.818;6.516;2022-11-14T06:59:03;6.60;99.90
60723;DHT22;46574;52.818;6.516;2022-11-14T07:01:29;6.50;99.90
60723;DHT22;46574;52.818;6.516;2022-11-14T07:03:55;6.50;99.90
60723;DHT22;46574;52.818;6.516;2022-11-14T07:06:25;6.50;99.90
60723;DHT22;46574;52.818;6.516;2022-11-14T07:08:51;6.50;99.90
60723;DHT22;46574;52.818;6.516;2022-11-14T07:11:20;6.50;99.90
60723;DHT22;46574;52.818;6.516;2022-11-14T07:13:51;6.60;99.90
60723;DHT22;46574;52.818;6.516;2022-11-14T07:16:17;6.50;99.90
60723;DHT22;46574;52.818;6.516;2022-11-14T07:18:43;6.50;99.90
60723;DHT22;46574;52.818;6.516;2022-11-14T07:21:09;6.50;99.90
60723;DHT22;46574;52.818;6.516;2022-11-14T07:23:37;6.40;99.90
60723;DHT22;46574;52.818;6.516;2022-11-14T07:26:05;6.40;99.90
60723;DHT22;46574;52.818;6.516;2022-11-14T07:28:34;6.40;99.90
60723;DHT22;46574;52.818;6.516;2022-11-14T07:31:09;6.40;99.90
60723;DHT22;46574;52.818;6.516;2022-11-14T07:33:35;6.40;99.90
60723;DHT22;46574;52.818;6.516;2022-11-14T07:36:00;6.30;99.90
60723;DHT22;46574;52.818;6.516;2022-11-14T07:38:26;6.30;99.90
60723;DHT22;46574;52.818;6.516;2022-11-14T07:43:19;6.30;99.90
60723;DHT22;46574;52.818;6.516;2022-11-14T07:45:44;6.30;99.90
60723;DHT22;46574;52.818;6.516;2022-11-14T07:48:10;6.30;99.90
60723;DHT22;46574;52.818;6.516;2022-11-14T07:50:35;6.30;99.90
60723;DHT22;46574;52.818;6.516;2022-11-14T07:53:02;6.30;99.90
60723;DHT22;46574;52.818;6.516;2022-11-14T07:55:27;6.30;99.90
60723;DHT22;46574;52.818;6.516;2022-11-14T07:57:53;6.30;99.90
60723;DHT22;46574;52.818;6.516;2022-11-14T08:00:19;6.30;99.90
60723;DHT22;46574;52.818;6.516;2022-11-14T08:02:46;6.30;99.90
60723;DHT22;46574;52.818;6.516;2022-11-14T08:05:12;6.30;99.90
60723;DHT22;46574;52.818;6.516;2022-11-14T08:07:37;6.40;99.90
60723;DHT22;46574;52.818;6.516;2022-11-14T08:10:03;6.40;99.90
60723;DHT22;46574;52.818;6.516;2022-11-14T08:12:29;6.40;99.90
60723;DHT22;46574;52.818;6.516;2022-11-14T08:14:55;6.40;99.90
60723;DHT22;46574;52.818;6.516;2022-11-14T08:17:21;6.50;99.90
60723;DHT22;46574;52.818;6.516;2022-11-14T08:19:47;6.50;99.90
60723;DHT22;46574;52.818;6.516;2022-11-14T08:22:13;6.60;99.90
60723;DHT22;46574;52.818;6.516;2022-11-14T08:24:39;6.50;99.90
60723;DHT22;46574;52.818;6.516;2022-11-14T08:27:04;6.60;99.90
60723;DHT22;46574;52.818;6.516;2022-11-14T08:29:30;6.60;99.90
60723;DHT22;46574;52.818;6.516;2022-11-14T08:31:55;6.60;99.90
60723;DHT22;46574;52.818;6.516;2022-11-14T08:34:21;6.60;99.90
60723;DHT22;46574;52.818;6.516;2022-11-14T08:36:48;6.70;99.90
60723;DHT22;46574;52.818;6.516;2022-11-14T08:39:14;6.70;99.90
60723;DHT22;46574;52.818;6.516;2022-11-14T08:41:39;6.70;99.90
60723;DHT22;46574;52.818;6.516;2022-11-14T08:44:05;6.80;99.90
60723;DHT22;46574;52.818;6.516;2022-11-14T08:46:31;6.80;99.90
60723;DHT22;46574;52.818;6.516;2022-11-14T08:48:56;6.80;99.90
60723;DHT22;46574;52.818;6.516;2022-11-14T08:51:22;6.90;99.90
60723;DHT22;46574;52.818;6.516;2022-11-14T08:53:47;6.90;99.90
60723;DHT22;46574;52.818;6.516;2022-11-14T08:56:13;7.00;99.90
60723;DHT22;46574;52.818;6.516;2022-11-14T08:58:39;7.00;99.90
60723;DHT22;46574;52.818;6.516;2022-11-14T09:01:06;7.00;99.90
60723;DHT22;46574;52.818;6.516;2022-11-14T09:03:32;7.00;99.90
60723;DHT22;46574;52.818;6.516;2022-11-14T09:05:58;7.10;99.90
60723;DHT22;46574;52.818;6.516;2022-11-14T09:08:24;7.10;99.90
60723;DHT22;46574;52.818;6.516;2022-11-14T09:10:50;7.10;99.90
60723;DHT22;46574;52.818;6.516;2022-11-14T09:13:16;7.10;99.90
60723;DHT22;46574;52.818;6.516;2022-11-14T09:15:42;7.10;99.90
60723;DHT22;46574;52.818;6.516;2022-11-14T09:18:09;7.20;99.90
60723;DHT22;46574;52.818;6.516;2022-11-14T09:20:35;7.20;99.90
60723;DHT22;46574;52.818;6.516;2022-11-14T09:23:01;7.20;99.90
60723;DHT22;46574;52.818;6.516;2022-11-14T09:25:28;7.30;99.90
60723;DHT22;46574;52.818;6.516;2022-11-14T09:27:54;7.30;99.90
60723;DHT22;46574;52.818;6.516;2022-11-14T09:30:20;7.30;99.90
60723;DHT22;46574;52.818;6.516;2022-11-14T09:32:47;7.40;99.90
60723;DHT22;46574;52.818;6.516;2022-11-14T09:35:13;7.50;99.90
60723;DHT22;46574;52.818;6.516;2022-11-14T09:37:39;7.50;99.90
60723;DHT22;46574;52.818;6.516;2022-11-14T09:40:05;7.60;99.90
60723;DHT22;46574;52.818;6.516;2022-11-14T09:45:16;7.70;99.90
60723;DHT22;46574;52.818;6.516;2022-11-14T09:47:51;7.70;99.90
60723;DHT22;46574;52.818;6.516;2022-11-14T09:50:26;7.70;99.90
60723;DHT22;46574;52.818;6.516;2022-11-14T09:52:57;7.80;99.90
60723;DHT22;46574;52.818;6.516;2022-11-14T09:55:29;7.80;99.90
60723;DHT22;46574;52.818;6.516;2022-11-14T09:57:56;7.80;99.90
60723;DHT22;46574;52.818;6.516;2022-11-14T10:00:24;7.90;99.90
60723;DHT22;46574;52.818;6.516;2022-11-14T10:17:00;8.20;99.90
60723;DHT22;46574;52.818;6.516;2022-11-14T10:25:20;8.40;99.90
60723;DHT22;46574;52.818;6.516;2022-11-14T10:30:36;8.50;99.90
60723;DHT22;46574;52.818;6.516;2022-11-14T10:33:22;8.60;99.90
60723;DHT22;46574;52.818;6.516;2022-11-14T10:39:03;8.60;99.90
60723;DHT22;46574;52.818;6.516;2022-11-14T10:41:30;8.60;99.90
60723;DHT22;46574;52.818;6.516;2022-11-14T10:43:57;8.60;99.90
60723;DHT22;46574;52.818;6.516;2022-11-14T10:46:27;8.70;99.90
60723;DHT22;46574;52.818;6.516;2022-11-14T10:48:54;8.70;99.90
60723;DHT22;46574;52.818;6.516;2022-11-14T10:51:39;8.80;99.90
60723;DHT22;46574;52.818;6.516;2022-11-14T10:54:14;8.80;99.90
60723;DHT22;46574;52.818;6.516;2022-11-14T10:56:50;8.80;99.90
60723;DHT22;46574;52.818;6.516;2022-11-14T10:59:16;8.80;99.90
60723;DHT22;46574;52.818;6.516;2022-11-14T11:01:44;8.80;99.90
60723;DHT22;46574;52.818;6.516;2022-11-14T11:06:42;8.80;99.90
60723;DHT22;46574;52.818;6.516;2022-11-14T11:09:13;8.90;99.90
60723;DHT22;46574;52.818;6.516;2022-11-14T11:12:00;8.90;99.90
60723;DHT22;46574;52.818;6.516;2022-11-14T11:14:27;9.00;99.90
60723;DHT22;46574;52.818;6.516;2022-11-14T11:19:38;9.20;99.90
60723;DHT22;46574;52.818;6.516;2022-11-14T11:22:08;9.20;99.90
60723;DHT22;46574;52.818;6.516;2022-11-14T11:24:47;9.30;99.90
60723;DHT22;46574;52.818;6.516;2022-11-14T11:27:20;9.30;99.90
60723;DHT22;46574;52.818;6.516;2022-11-14T11:30:02;9.40;99.90
60723;DHT22;46574;52.818;6.516;2022-11-14T11:32:28;9.40;99.90
60723;DHT22;46574;52.818;6.516;2022-11-14T11:34:59;9.50;99.90
60723;DHT22;46574;52.818;6.516;2022-11-14T11:37:44;9.50;99.90
60723;DHT22;46574;52.818;6.516;2022-11-14T11:40:21;9.60;99.90
60723;DHT22;46574;52.818;6.516;2022-11-14T11:42:58;9.70;99.90
60723;DHT22;46574;52.818;6.516;2022-11-14T11:45:25;9.70;99.90
60723;DHT22;46574;52.818;6.516;2022-11-14T11:48:02;9.70;99.90
60723;DHT22;46574;52.818;6.516;2022-11-14T11:50:32;9.70;99.90
60723;DHT22;46574;52.818;6.516;2022-11-14T11:53:29;9.80;99.90
60723;DHT22;46574;52.818;6.516;2022-11-14T11:56:05;9.80;99.90
60723;DHT22;46574;52.818;6.516;2022-11-14T11:58:36;9.90;99.90
60723;DHT22;46574;52.818;6.516;2022-11-14T12:01:07;9.80;99.90
60723;DHT22;46574;52.818;6.516;2022-11-14T12:03:33;9.90;99.90
60723;DHT22;46574;52.818;6.516;2022-11-14T12:06:13;9.90;99.90
60723;DHT22;46574;52.818;6.516;2022-11-14T12:11:26;10.00;99.90
60723;DHT22;46574;52.818;6.516;2022-11-14T12:14:01;10.00;99.90
60723;DHT22;46574;52.818;6.516;2022-11-14T12:16:38;10.00;99.90
60723;DHT22;46574;52.818;6.516;2022-11-14T12:25:34;10.20;99.90
60723;DHT22;46574;52.818;6.516;2022-11-14T12:31:11;10.70;99.90
60723;DHT22;46574;52.818;6.516;2022-11-14T12:33:53;10.50;99.90
60723;DHT22;46574;52.818;6.516;2022-11-14T12:36:30;10.30;99.90
60723;DHT22;46574;52.818;6.516;2022-11-14T12:38:57;10.70;99.90
60723;DHT22;46574;52.818;6.516;2022-11-14T12:41:32;10.90;99.90
60723;DHT22;46574;52.818;6.516;2022-11-14T12:52:03;10.10;99.90
60723;DHT22;46574;52.818;6.516;2022-11-14T12:54:43;10.00;99.90
60723;DHT22;46574;52.818;6.516;2022-11-14T12:57:18;9.90;99.90
60723;DHT22;46574;52.818;6.516;2022-11-14T13:00:07;9.90;99.90
60723;DHT22;46574;52.818;6.516;2022-11-14T13:02:42;9.80;99.90
60723;DHT22;46574;52.818;6.516;2022-11-14T13:10:31;9.80;99.90
60723;DHT22;46574;52.818;6.516;2022-11-14T13:13:05;9.80;99.90
60723;DHT22;46574;52.818;6.516;2022-11-14T13:15:54;9.80;99.90
60723;DHT22;46574;52.818;6.516;2022-11-14T13:27:25;9.80;99.90
60723;DHT22;46574;52.818;6.516;2022-11-14T13:29:52;9.80;99.90
60723;DHT22;46574;52.818;6.516;2022-11-14T13:35:15;9.80;99.90
60723;DHT22;46574;52.818;6.516;2022-11-14T13:38:10;9.80;99.90
60723;DHT22;46574;52.818;6.516;2022-11-14T13:41:21;9.80;99.90
60723;DHT22;46574;52.818;6.516;2022-11-14T13:47:06;9.80;99.90
60723;DHT22;46574;52.818;6.516;2022-11-14T13:52:30;9.80;99.90
60723;DHT22;46574;52.818;6.516;2022-11-14T13:54:56;9.80;99.90
60723;DHT22;46574;52.818;6.516;2022-11-14T14:02:46;9.70;99.90
60723;DHT22;46574;52.818;6.516;2022-11-14T14:05:31;9.70;99.90
60723;DHT22;46574;52.818;6.516;2022-11-14T14:08:11;9.70;99.90
60723;DHT22;46574;52.818;6.516;2022-11-14T14:19:53;9.60;99.90
60723;DHT22;46574;52.818;6.516;2022-11-14T14:22:34;9.60;99.90
60723;DHT22;46574;52.818;6.516;2022-11-14T14:28:05;9.60;99.90
60723;DHT22;46574;52.818;6.516;2022-11-14T14:30:34;9.50;99.90
60723;DHT22;46574;52.818;6.516;2022-11-14T14:33:15;9.50;99.90
60723;DHT22;46574;52.818;6.516;2022-11-14T14:35:49;9.50;99.90
60723;DHT22;46574;52.818;6.516;2022-11-14T14:38:26;9.50;99.90
60723;DHT22;46574;52.818;6.516;2022-11-14T14:40:55;9.50;99.90
60723;DHT22;46574;52.818;6.516;2022-11-14T14:43:29;9.50;99.90
60723;DHT22;46574;52.818;6.516;2022-11-14T14:45:56;9.50;99.90
60723;DHT22;46574;52.818;6.516;2022-11-14T14:48:24;9.50;99.90
60723;DHT22;46574;52.818;6.516;2022-11-14T14:50:58;9.50;99.90
60723;DHT22;46574;52.818;6.516;2022-11-14T14:53:27;9.60;99.90
60723;DHT22;46574;52.818;6.516;2022-11-14T14:55:59;9.60;99.90
60723;DHT22;46574;52.818;6.516;2022-11-14T14:58:28;9.60;99.90
60723;DHT22;46574;52.818;6.516;2022-11-14T15:03:47;9.50;99.90
60723;DHT22;46574;52.818;6.516;2022-11-14T15:06:31;9.60;99.90
60723;DHT22;46574;52.818;6.516;2022-11-14T15:09:02;9.50;99.90
60723;DHT22;46574;52.818;6.516;2022-11-14T15:11:33;9.50;99.90
60723;DHT22;46574;52.818;6.516;2022-11-14T15:13:59;9.50;99.90
60723;DHT22;46574;52.818;6.516;2022-11-14T15:16:26;9.50;99.90
60723;DHT22;46574;52.818;6.516;2022-11-14T15:18:54;9.60;99.90
60723;DHT22;46574;52.818;6.516;2022-11-14T15:24:16;9.50;99.90
60723;DHT22;46574;52.818;6.516;2022-11-14T15:26:47;9.50;99.90
60723;DHT22;46574;52.818;6.516;2022-11-14T15:29:24;9.50;99.90
60723;DHT22;46574;52.818;6.516;2022-11-14T15:31:58;9.50;99.90
60723;DHT22;46574;52.818;6.516;2022-11-14T15:34:29;9.50;99.90
60723;DHT22;46574;52.818;6.516;2022-11-14T15:37:19;9.50;99.90
60723;DHT22;46574;52.818;6.516;2022-11-14T15:39:46;9.50;99.90
60723;DHT22;46574;52.818;6.516;2022-11-14T15:42:13;9.50;99.90
60723;DHT22;46574;52.818;6.516;2022-11-14T15:44:39;9.50;99.90
60723;DHT22;46574;52.818;6.516;2022-11-14T15:47:37;9.50;99.90
60723;DHT22;46574;52.818;6.516;2022-11-14T15:55:15;9.50;99.90
60723;DHT22;46574;52.818;6.516;2022-11-14T15:57:41;9.50;99.90
60723;DHT22;46574;52.818;6.516;2022-11-14T16:00:11;9.50;99.90
60723;DHT22;46574;52.818;6.516;2022-11-14T16:02:42;9.50;99.90
60723;DHT22;46574;52.818;6.516;2022-11-14T16:05:12;9.50;99.90
60723;DHT22;46574;52.818;6.516;2022-11-14T16:07:38;9.50;99.90
60723;DHT22;46574;52.818;6.516;2022-11-14T16:10:18;9.50;99.90
60723;DHT22;46574;52.818;6.516;2022-11-14T16:12:44;9.50;99.90
60723;DHT22;46574;52.818;6.516;2022-11-14T16:15:10;9.50;99.90
60723;DHT22;46574;52.818;6.516;2022-11-14T16:17:38;9.50;99.90
60723;DHT22;46574;52.818;6.516;2022-11-14T16:20:06;9.40;99.90
60723;DHT22;46574;52.818;6.516;2022-11-14T16:22:35;9.50;99.90
60723;DHT22;46574;52.818;6.516;2022-11-14T16:25:00;9.50;99.90
60723;DHT22;46574;52.818;6.516;2022-11-14T16:27:26;9.50;99.90
60723;DHT22;46574;52.818;6.516;2022-11-14T16:29:52;9.50;99.90
60723;DHT22;46574;52.818;6.516;2022-11-14T16:32:18;9.50;99.90
60723;DHT22;46574;52.818;6.516;2022-11-14T16:34:44;9.50;99.90
60723;DHT22;46574;52.818;6.516;2022-11-14T16:37:11;9.50;99.90
60723;DHT22;46574;52.818;6.516;2022-11-14T16:39:37;9.50;99.90
60723;DHT22;46574;52.818;6.516;2022-11-14T16:42:03;9.40;99.90
60723;DHT22;46574;52.818;6.516;2022-11-14T16:44:29;9.50;99.90
60723;DHT22;46574;52.818;6.516;2022-11-14T16:46:55;9.50;99.90
60723;DHT22;46574;52.818;6.516;2022-11-14T16:49:21;9.50;99.90
60723;DHT22;46574;52.818;6.516;2022-11-14T16:51:47;9.50;99.90
60723;DHT22;46574;52.818;6.516;2022-11-14T16:54:14;9.40;99.90
60723;DHT22;46574;52.818;6.516;2022-11-14T16:56:40;9.40;99.90
60723;DHT22;46574;52.818;6.516;2022-11-14T16:59:08;9.50;99.90
60723;DHT22;46574;52.818;6.516;2022-11-14T17:01:34;9.40;99.90
60723;DHT22;46574;52.818;6.516;2022-11-14T17:04:00;9.40;99.90
60723;DHT22;46574;52.818;6.516;2022-11-14T17:06:26;9.40;99.90
60723;DHT22;46574;52.818;6.516;2022-11-14T17:08:57;9.40;99.90
60723;DHT22;46574;52.818;6.516;2022-11-14T17:11:24;9.40;99.90
60723;DHT22;46574;52.818;6.516;2022-11-14T17:13:50;9.40;99.90
60723;DHT22;46574;52.818;6.516;2022-11-14T17:16:16;9.40;99.90
60723;DHT22;46574;52.818;6.516;2022-11-14T17:18:42;9.40;99.90
60723;DHT22;46574;52.818;6.516;2022-11-14T17:21:10;9.30;99.90
60723;DHT22;46574;52.818;6.516;2022-11-14T17:23:36;9.30;99.90
60723;DHT22;46574;52.818;6.516;2022-11-14T17:26:08;9.20;99.90
60723;DHT22;46574;52.818;6.516;2022-11-14T17:28:34;9.20;99.90
60723;DHT22;46574;52.818;6.516;2022-11-14T17:31:07;9.20;99.90
60723;DHT22;46574;52.818;6.516;2022-11-14T17:33:34;9.20;99.90
60723;DHT22;46574;52.818;6.516;2022-11-14T17:36:04;9.20;99.90
60723;DHT22;46574;52.818;6.516;2022-11-14T17:38:31;9.20;99.90
60723;DHT22;46574;52.818;6.516;2022-11-14T17:40:57;9.20;99.90
60723;DHT22;46574;52.818;6.516;2022-11-14T17:43:23;9.20;99.90